sensor_id;sensor_type;location;lat;lon;timestamp;pressure;altitude;pressure_sealevel;temperature;humidity
10014;BME280;45684;48.358;10.746;2023-02-22T00:00:44;96124.88;;;2.67;100.00
10014;BME280;45684;48.358;10.746;2023-02-22T00:03:18;96119.78;;;2.55;100.00
10014;BME280;45684;48.358;10.746;2023-02-22T00:05:54;96121.94;;;2.59;100.00
10014;BME280;45684;48.358;10.746;2023-02-22T00:08:25;96124.09;;;2.62;100.00
10014;BME280;45684;48.358;10.746;2023-02-22T00:10:56;96128.63;;;2.66;100.00
10014;BME280;45684;48.358;10.746;2023-02-22T00:13:24;96121.94;;;2.74;100.00
10014;BME280;45684;48.358;10.746;2023-02-22T00:15:55;96131.81;;;2.68;100.00
10014;BME280;45684;48.358;10.746;2023-02-22T00:18:25;96128.09;;;2.59;100.00
10014;BME280;45684;48.358;10.746;2023-02-22T00:20:54;96128.88;;;2.54;100.00
10014;BME280;45684;48.358;10.746;2023-02-22T00:23:27;96128.63;;;2.61;100.00
10014;BME280;45684;48.358;10.746;2023-02-22T00:25:56;96120.88;;;2.65;100.00
10014;BME280;45684;48.358;10.746;2023-02-22T00:28:26;96127.56;;;2.67;100.00
10014;BME280;45684;48.358;10.746;2023-02-22T00:30:56;96125.41;;;2.69;100.00
10014;BME280;45684;48.358;10.746;2023-02-22T00:33:26;96126.47;;;2.68;100.00
10014;BME280;45684;48.358;10.746;2023-02-22T00:35:54;96129.44;;;2.67;100.00
10014;BME280;45684;48.358;10.746;2023-02-22T00:38:22;96126.47;;;2.68;100.00
10014;BME280;45684;48.358;10.746;2023-02-22T00:40:50;96127.00;;;2.65;100.00
10014;BME280;45684;48.358;10.746;2023-02-22T00:43:18;96122.47;;;2.55;100.00
10014;BME280;45684;48.358;10.746;2023-02-22T00:45:46;96127.81;;;2.50;100.00
10014;BME280;45684;48.358;10.746;2023-02-22T00:48:16;96122.19;;;2.42;100.00
10014;BME280;45684;48.358;10.746;2023-02-22T00:50:46;96122.97;;;2.27;100.00
10014;BME280;45684;48.358;10.746;2023-02-22T00:53:15;96124.53;;;2.13;100.00
10014;BME280;45684;48.358;10.746;2023-02-22T00:55:43;96124.81;;;2.11;100.00
10014;BME280;45684;48.358;10.746;2023-02-22T00:58:11;96121.91;;;2.28;100.00
10014;BME280;45684;48.358;10.746;2023-02-22T01:00:40;96116.84;;;2.32;100.00
10014;BME280;45684;48.358;10.746;2023-02-22T01:03:12;96123.53;;;2.24;100.00
10014;BME280;45684;48.358;10.746;2023-02-22T01:05:40;96112.56;;;2.20;100.00
10014;BME280;45684;48.358;10.746;2023-02-22T01:08:12;96121.66;;;2.29;100.00
10014;BME280;45684;48.358;10.746;2023-02-22T01:10:40;96110.19;;;2.29;100.00
10014;BME280;45684;48.358;10.746;2023-02-22T01:13:08;96108.84;;;2.37;100.00
10014;BME280;45684;48.358;10.746;2023-02-22T01:15:39;96113.09;;;2.33;100.00
10014;BME280;45684;48.358;10.746;2023-02-22T01:18:08;96104.56;;;2.30;100.00
10014;BME280;45684;48.358;10.746;2023-02-22T01:20:35;96106.16;;;2.32;100.00
10014;BME280;45684;48.358;10.746;2023-02-22T01:23:04;96102.97;;;2.29;100.00
10014;BME280;45684;48.358;10.746;2023-02-22T01:25:35;96104.84;;;2.29;100.00
10014;BME280;45684;48.358;10.746;2023-02-22T01:28:04;96101.09;;;2.30;100.00
10014;BME280;45684;48.358;10.746;2023-02-22T01:30:34;96097.38;;;2.36;100.00
10014;BME280;45684;48.358;10.746;2023-02-22T01:33:05;96097.09;;;2.33;100.00
10014;BME280;45684;48.358;10.746;2023-02-22T01:35:35;96093.09;;;2.25;100.00
10014;BME280;45684;48.358;10.746;2023-02-22T01:38:04;96094.94;;;2.14;100.00
10014;BME280;45684;48.358;10.746;2023-02-22T01:40:35;96093.59;;;2.07;100.00
10014;BME280;45684;48.358;10.746;2023-02-22T01:43:05;96085.84;;;2.05;100.00
10014;BME280;45684;48.358;10.746;2023-02-22T01:45:49;96084.00;;;2.11;100.00
10014;BME280;45684;48.358;10.746;2023-02-22T01:48:23;96082.91;;;1.91;100.00
10014;BME280;45684;48.358;10.746;2023-02-22T01:50:55;96085.00;;;1.79;100.00
10014;BME280;45684;48.358;10.746;2023-02-22T01:53:27;96081.75;;;1.67;100.00
10014;BME280;45684;48.358;10.746;2023-02-22T01:55:59;96074.84;;;1.81;100.00
10014;BME280;45684;48.358;10.746;2023-02-22T01:58:28;96081.56;;;1.89;100.00
10014;BME280;45684;48.358;10.746;2023-02-22T02:00:57;96076.78;;;2.01;100.00
10014;BME280;45684;48.358;10.746;2023-02-22T02:03:29;96069.59;;;1.96;100.00
10014;BME280;45684;48.358;10.746;2023-02-22T02:06:02;96074.34;;;1.89;100.00
10014;BME280;45684;48.358;10.746;2023-02-22T02:08:36;96066.34;;;1.79;100.00
10014;BME280;45684;48.358;10.746;2023-02-22T02:11:07;96067.16;;;1.85;100.00
10014;BME280;45684;48.358;10.746;2023-02-22T02:13:36;96068.44;;;1.77;100.00
10014;BME280;45684;48.358;10.746;2023-02-22T02:16:04;96061.53;;;1.76;100.00
10014;BME280;45684;48.358;10.746;2023-02-22T02:18:32;96072.97;;;1.76;100.00
10014;BME280;45684;48.358;10.746;2023-02-22T02:24:15;96080.44;;;1.74;100.00
10014;BME280;45684;48.358;10.746;2023-02-22T02:27:13;96077.00;;;1.74;100.00
10014;BME280;45684;48.358;10.746;2023-02-22T02:30:07;96088.66;;;1.68;100.00
10014;BME280;45684;48.358;10.746;2023-02-22T02:32:51;96079.38;;;1.75;100.00
10014;BME280;45684;48.358;10.746;2023-02-22T02:35:29;96082.34;;;1.84;100.00
10014;BME280;45684;48.358;10.746;2023-02-22T02:38:06;96076.75;;;1.91;100.00
10014;BME280;45684;48.358;10.746;2023-02-22T02:40:44;96070.91;;;1.94;100.00
10014;BME280;45684;48.358;10.746;2023-02-22T02:43:19;96061.84;;;1.95;100.00
10014;BME280;45684;48.358;10.746;2023-02-22T02:45:53;96067.97;;;2.00;100.00
10014;BME280;45684;48.358;10.746;2023-02-22T02:48:26;96065.06;;;2.02;100.00
10014;BME280;45684;48.358;10.746;2023-02-22T02:50:57;96061.31;;;2.03;100.00
10014;BME280;45684;48.358;10.746;2023-02-22T02:53:33;96063.97;;;1.98;100.00
10014;BME280;45684;48.358;10.746;2023-02-22T02:56:01;96060.50;;;1.87;100.00
10014;BME280;45684;48.358;10.746;2023-02-22T02:58:29;96054.38;;;1.92;100.00
10014;BME280;45684;48.358;10.746;2023-02-22T03:00:59;96061.59;;;1.91;100.00
10014;BME280;45684;48.358;10.746;2023-02-22T03:03:47;96063.16;;;1.87;100.00
10014;BME280;45684;48.358;10.746;2023-02-22T03:06:30;96052.75;;;1.86;100.00
10014;BME280;45684;48.358;10.746;2023-02-22T03:09:11;96052.44;;;1.77;100.00
10014;BME280;45684;48.358;10.746;2023-02-22T03:11:48;96054.34;;;1.82;100.00
10014;BME280;45684;48.358;10.746;2023-02-22T03:14:23;96054.84;;;1.68;100.00
10014;BME280;45684;48.358;10.746;2023-02-22T03:16:58;96058.31;;;1.64;100.00
10014;BME280;45684;48.358;10.746;2023-02-22T03:19:37;96046.56;;;1.60;100.00
10014;BME280;45684;48.358;10.746;2023-02-22T03:22:10;96044.69;;;1.60;100.00
10014;BME280;45684;48.358;10.746;2023-02-22T03:24:44;96042.56;;;1.67;100.00
10014;BME280;45684;48.358;10.746;2023-02-22T03:27:23;96049.75;;;1.62;100.00
10014;BME280;45684;48.358;10.746;2023-02-22T03:30:00;96043.59;;;1.51;100.00
10014;BME280;45684;48.358;10.746;2023-02-22T03:32:32;96040.94;;;1.51;100.00
10014;BME280;45684;48.358;10.746;2023-02-22T03:35:07;96035.88;;;1.55;100.00
10014;BME280;45684;48.358;10.746;2023-02-22T03:37:39;96041.47;;;1.53;100.00
10014;BME280;45684;48.358;10.746;2023-02-22T03:40:13;96041.22;;;1.60;100.00
10014;BME280;45684;48.358;10.746;2023-02-22T03:42:47;96031.09;;;1.57;100.00
10014;BME280;45684;48.358;10.746;2023-02-22T03:45:18;96032.16;;;1.61;100.00
10014;BME280;45684;48.358;10.746;2023-02-22T03:47:52;96028.19;;;1.63;100.00
10014;BME280;45684;48.358;10.746;2023-02-22T03:50:28;96024.97;;;1.56;100.00
10014;BME280;45684;48.358;10.746;2023-02-22T03:52:56;96022.81;;;1.58;100.00
10014;BME280;45684;48.358;10.746;2023-02-22T03:55:27;96014.81;;;1.58;100.00
10014;BME280;45684;48.358;10.746;2023-02-22T03:57:57;96019.38;;;1.63;100.00
10014;BME280;45684;48.358;10.746;2023-02-22T04:00:31;96016.72;;;1.63;100.00
10014;BME280;45684;48.358;10.746;2023-02-22T04:03:00;96015.91;;;1.62;100.00
10014;BME280;45684;48.358;10.746;2023-02-22T04:05:29;96012.22;;;1.63;100.00
10014;BME280;45684;48.358;10.746;2023-02-22T04:07:57;96009.50;;;1.58;100.00
10014;BME280;45684;48.358;10.746;2023-02-22T04:10:26;96011.91;;;1.60;100.00
10014;BME280;45684;48.358;10.746;2023-02-22T04:12:54;96009.78;;;1.62;100.00
10014;BME280;45684;48.358;10.746;2023-02-22T04:15:23;96006.06;;;1.63;100.00
10014;BME280;45684;48.358;10.746;2023-02-22T04:17:55;96002.34;;;1.59;100.00
10014;BME280;45684;48.358;10.746;2023-02-22T04:20:23;96003.13;;;1.54;100.00
10014;BME280;45684;48.358;10.746;2023-02-22T04:22:58;95989.50;;;1.50;100.00
10014;BME280;45684;48.358;10.746;2023-02-22T04:25:27;95993.78;;;1.51;100.00
10014;BME280;45684;48.358;10.746;2023-02-22T04:27:55;95996.16;;;1.53;100.00
10014;BME280;45684;48.358;10.746;2023-02-22T04:30:36;95989.25;;;1.52;100.00
10014;BME280;45684;48.358;10.746;2023-02-22T04:33:07;95982.00;;;1.32;100.00
10014;BME280;45684;48.358;10.746;2023-02-22T04:35:36;95991.59;;;1.33;100.00
10014;BME280;45684;48.358;10.746;2023-02-22T04:38:06;95996.88;;;1.23;100.00
10014;BME280;45684;48.358;10.746;2023-02-22T04:40:35;95995.03;;;1.28;100.00
10014;BME280;45684;48.358;10.746;2023-02-22T04:43:03;96002.25;;;1.33;100.00
10014;BME280;45684;48.358;10.746;2023-02-22T04:45:31;95995.84;;;1.39;100.00
10014;BME280;45684;48.358;10.746;2023-02-22T04:48:01;95992.13;;;1.35;100.00
10014;BME280;45684;48.358;10.746;2023-02-22T04:50:29;95997.41;;;1.25;100.00
10014;BME280;45684;48.358;10.746;2023-02-22T04:52:56;95991.53;;;1.13;100.00
10014;BME280;45684;48.358;10.746;2023-02-22T04:55:26;95992.03;;;1.10;100.00
10014;BME280;45684;48.358;10.746;2023-02-22T04:57:55;95998.91;;;1.00;100.00
10014;BME280;45684;48.358;10.746;2023-02-22T05:00:23;95995.19;;;1.01;100.00
10014;BME280;45684;48.358;10.746;2023-02-22T05:02:56;95997.31;;;0.99;100.00
10014;BME280;45684;48.358;10.746;2023-02-22T05:05:24;95991.22;;;1.04;100.00
10014;BME280;45684;48.358;10.746;2023-02-22T05:07:52;96000.81;;;1.10;100.00
10014;BME280;45684;48.358;10.746;2023-02-22T05:10:19;96006.94;;;1.11;100.00
10014;BME280;45684;48.358;10.746;2023-02-22T05:12:49;96001.13;;;1.19;100.00
10014;BME280;45684;48.358;10.746;2023-02-22T05:15:18;96003.44;;;1.00;100.00
10014;BME280;45684;48.358;10.746;2023-02-22T05:17:46;95997.31;;;0.94;100.00
10014;BME280;45684;48.358;10.746;2023-02-22T05:20:16;95993.88;;;0.99;100.00
10014;BME280;45684;48.358;10.746;2023-02-22T05:22:48;95986.69;;;1.05;100.00
10014;BME280;45684;48.358;10.746;2023-02-22T05:25:17;96004.25;;;1.06;100.00
10014;BME280;45684;48.358;10.746;2023-02-22T05:27:50;95996.28;;;1.06;100.00
10014;BME280;45684;48.358;10.746;2023-02-22T05:30:19;95996.78;;;1.02;100.00
10014;BME280;45684;48.358;10.746;2023-02-22T05:32:49;95996.53;;;1.04;100.00
10014;BME280;45684;48.358;10.746;2023-02-22T05:35:17;95992.81;;;1.05;100.00
10014;BME280;45684;48.358;10.746;2023-02-22T05:37:45;95998.94;;;1.06;100.00
10014;BME280;45684;48.358;10.746;2023-02-22T05:40:13;95993.31;;;1.02;100.00
10014;BME280;45684;48.358;10.746;2023-02-22T05:42:40;95995.91;;;0.82;100.00
10014;BME280;45684;48.358;10.746;2023-02-22T05:45:12;95993.47;;;0.75;100.00
10014;BME280;45684;48.358;10.746;2023-02-22T05:47:40;95991.81;;;0.69;100.00
10014;BME280;45684;48.358;10.746;2023-02-22T05:50:08;95979.84;;;0.61;100.00
10014;BME280;45684;48.358;10.746;2023-02-22T05:52:36;95988.38;;;0.68;100.00
10014;BME280;45684;48.358;10.746;2023-02-22T05:55:05;95986.53;;;0.74;100.00
10014;BME280;45684;48.358;10.746;2023-02-22T05:57:33;95991.34;;;0.77;100.00
10014;BME280;45684;48.358;10.746;2023-02-22T06:00:02;95988.97;;;0.75;100.00
10014;BME280;45684;48.358;10.746;2023-02-22T06:02:39;95987.13;;;0.81;100.00
10014;BME280;45684;48.358;10.746;2023-02-22T06:05:07;95983.66;;;0.81;100.00
10014;BME280;45684;48.358;10.746;2023-02-22T06:07:35;95995.09;;;0.81;100.00
10014;BME280;45684;48.358;10.746;2023-02-22T06:10:03;95987.91;;;0.82;100.00
10014;BME280;45684;48.358;10.746;2023-02-22T06:12:31;95984.47;;;0.81;100.00
10014;BME280;45684;48.358;10.746;2023-02-22T06:14:59;95991.09;;;0.84;100.00
10014;BME280;45684;48.358;10.746;2023-02-22T06:17:27;95983.91;;;0.79;100.00
10014;BME280;45684;48.358;10.746;2023-02-22T06:19:57;95988.97;;;0.75;100.00
10014;BME280;45684;48.358;10.746;2023-02-22T06:22:25;95991.06;;;0.73;100.00
10014;BME280;45684;48.358;10.746;2023-02-22T06:24:52;95999.03;;;0.73;100.00
10014;BME280;45684;48.358;10.746;2023-02-22T06:27:20;95988.41;;;0.79;100.00
10014;BME280;45684;48.358;10.746;2023-02-22T06:29:48;95988.16;;;0.75;100.00
10014;BME280;45684;48.358;10.746;2023-02-22T06:32:16;95993.72;;;0.73;100.00
10014;BME280;45684;48.358;10.746;2023-02-22T06:34:44;95989.16;;;0.69;100.00
10014;BME280;45684;48.358;10.746;2023-02-22T06:37:13;95997.72;;;0.71;100.00
10014;BME280;45684;48.358;10.746;2023-02-22T06:39:40;96004.13;;;0.75;100.00
10014;BME280;45684;48.358;10.746;2023-02-22T06:42:08;96009.72;;;0.79;100.00
10014;BME280;45684;48.358;10.746;2023-02-22T06:44:36;96004.38;;;0.79;100.00
10014;BME280;45684;48.358;10.746;2023-02-22T06:47:04;96005.44;;;0.72;100.00
10014;BME280;45684;48.358;10.746;2023-02-22T06:49:33;96009.44;;;0.75;100.00
10014;BME280;45684;48.358;10.746;2023-02-22T06:52:03;96010.50;;;0.79;100.00
10014;BME280;45684;48.358;10.746;2023-02-22T06:54:32;96020.09;;;0.75;100.00
10014;BME280;45684;48.358;10.746;2023-02-22T06:57:00;96013.22;;;0.84;100.00
10014;BME280;45684;48.358;10.746;2023-02-22T06:59:28;96015.06;;;0.84;100.00
10014;BME280;45684;48.358;10.746;2023-02-22T07:01:56;96012.19;;;0.90;100.00
10014;BME280;45684;48.358;10.746;2023-02-22T07:04:24;96011.69;;;0.93;100.00
10014;BME280;45684;48.358;10.746;2023-02-22T07:06:52;96014.88;;;1.00;100.00
10014;BME280;45684;48.358;10.746;2023-02-22T07:09:20;96010.66;;;1.10;100.00
10014;BME280;45684;48.358;10.746;2023-02-22T07:11:49;96013.91;;;1.17;100.00
10014;BME280;45684;48.358;10.746;2023-02-22T07:14:17;96012.31;;;1.21;100.00
10014;BME280;45684;48.358;10.746;2023-02-22T07:16:45;96010.22;;;1.28;100.00
10014;BME280;45684;48.358;10.746;2023-02-22T07:19:12;96010.75;;;1.35;100.00
10014;BME280;45684;48.358;10.746;2023-02-22T07:21:40;96003.34;;;1.42;100.00
10014;BME280;45684;48.358;10.746;2023-02-22T07:24:08;96015.38;;;1.50;100.00
10014;BME280;45684;48.358;10.746;2023-02-22T07:26:38;96010.31;;;1.59;100.00
10014;BME280;45684;48.358;10.746;2023-02-22T07:29:07;96007.69;;;1.69;100.00
10014;BME280;45684;48.358;10.746;2023-02-22T07:31:37;96014.63;;;1.80;100.00
10014;BME280;45684;48.358;10.746;2023-02-22T07:34:05;96014.63;;;1.85;100.00
10014;BME280;45684;48.358;10.746;2023-02-22T07:36:33;96004.75;;;1.91;100.00
10014;BME280;45684;48.358;10.746;2023-02-22T07:39:01;95997.31;;;1.98;100.00
10014;BME280;45684;48.358;10.746;2023-02-22T07:41:29;96000.50;;;2.05;100.00
10014;BME280;45684;48.358;10.746;2023-02-22T07:44:01;95994.94;;;2.17;100.00
10014;BME280;45684;48.358;10.746;2023-02-22T07:46:30;95996.00;;;2.26;100.00
10014;BME280;45684;48.358;10.746;2023-02-22T07:48:59;95994.91;;;2.37;100.00
10014;BME280;45684;48.358;10.746;2023-02-22T07:51:27;95989.84;;;2.46;100.00
10014;BME280;45684;48.358;10.746;2023-02-22T07:53:54;95986.91;;;2.58;100.00
10014;BME280;45684;48.358;10.746;2023-02-22T07:56:22;95989.28;;;2.69;100.00
10014;BME280;45684;48.358;10.746;2023-02-22T07:58:50;95988.72;;;2.83;100.00
10014;BME280;45684;48.358;10.746;2023-02-22T08:01:18;95978.25;;;2.96;100.00
10014;BME280;45684;48.358;10.746;2023-02-22T08:03:47;95983.31;;;3.08;100.00
10014;BME280;45684;48.358;10.746;2023-02-22T08:06:15;95978.97;;;3.22;100.00
10014;BME280;45684;48.358;10.746;2023-02-22T08:08:43;95981.31;;;3.34;100.00
10014;BME280;45684;48.358;10.746;2023-02-22T08:11:11;95979.63;;;3.48;100.00
10014;BME280;45684;48.358;10.746;2023-02-22T08:13:38;95975.28;;;3.63;100.00
10014;BME280;45684;48.358;10.746;2023-02-22T08:16:06;95971.72;;;3.77;100.00
10014;BME280;45684;48.358;10.746;2023-02-22T08:18:34;95977.78;;;3.93;100.00
10014;BME280;45684;48.358;10.746;2023-02-22T08:21:05;95975.28;;;4.07;100.00
10014;BME280;45684;48.358;10.746;2023-02-22T08:23:33;95980.78;;;4.21;100.00
10014;BME280;45684;48.358;10.746;2023-02-22T08:26:05;95977.19;;;4.35;100.00
10014;BME280;45684;48.358;10.746;2023-02-22T08:28:33;95982.69;;;4.49;100.00
10014;BME280;45684;48.358;10.746;2023-02-22T08:31:01;95974.50;;;4.65;100.00
10014;BME280;45684;48.358;10.746;2023-02-22T08:33:28;95981.31;;;4.81;100.00
10014;BME280;45684;48.358;10.746;2023-02-22T08:35:56;95976.06;;;4.95;100.00
10014;BME280;45684;48.358;10.746;2023-02-22T08:38:27;95977.78;;;5.09;100.00
10014;BME280;45684;48.358;10.746;2023-02-22T08:40:56;95983.50;;;5.22;100.00
10014;BME280;45684;48.358;10.746;2023-02-22T08:43:24;95984.41;;;5.36;100.00
10014;BME280;45684;48.358;10.746;2023-02-22T08:45:51;95974.81;;;5.54;100.00
10014;BME280;45684;48.358;10.746;2023-02-22T08:48:23;95973.00;;;5.68;100.00
10014;BME280;45684;48.358;10.746;2023-02-22T08:50:50;95974.19;;;5.81;100.00
10014;BME280;45684;48.358;10.746;2023-02-22T08:53:18;95970.81;;;5.94;100.00
10014;BME280;45684;48.358;10.746;2023-02-22T08:55:47;95976.22;;;6.08;100.00
10014;BME280;45684;48.358;10.746;2023-02-22T08:58:16;95977.16;;;6.17;100.00
10014;BME280;45684;48.358;10.746;2023-02-22T09:00:44;95973.22;;;6.28;100.00
10014;BME280;45684;48.358;10.746;2023-02-22T09:03:13;95977.84;;;6.42;100.00
10014;BME280;45684;48.358;10.746;2023-02-22T09:05:42;95973.22;;;6.61;100.00
10014;BME280;45684;48.358;10.746;2023-02-22T09:08:10;95974.13;;;6.70;100.00
10014;BME280;45684;48.358;10.746;2023-02-22T09:10:38;95975.03;;;6.79;100.00
10014;BME280;45684;48.358;10.746;2023-02-22T09:13:08;95966.50;;;6.91;100.00
10014;BME280;45684;48.358;10.746;2023-02-22T09:15:36;95965.41;;;7.06;100.00
10014;BME280;45684;48.358;10.746;2023-02-22T09:18:06;95968.91;;;7.20;100.00
10014;BME280;45684;48.358;10.746;2023-02-22T09:20:36;95967.47;;;7.36;100.00
10014;BME280;45684;48.358;10.746;2023-02-22T09:23:04;95956.91;;;7.54;100.00
10014;BME280;45684;48.358;10.746;2023-02-22T09:25:33;95965.38;;;7.61;100.00
10014;BME280;45684;48.358;10.746;2023-02-22T09:28:01;95962.97;;;7.59;100.00
10014;BME280;45684;48.358;10.746;2023-02-22T09:30:31;95963.38;;;7.66;100.00
10014;BME280;45684;48.358;10.746;2023-02-22T09:33:01;95961.25;;;7.77;100.00
10014;BME280;45684;48.358;10.746;2023-02-22T09:35:30;95955.81;;;7.91;100.00
10014;BME280;45684;48.358;10.746;2023-02-22T09:38:03;95945.31;;;8.03;100.00
10014;BME280;45684;48.358;10.746;2023-02-22T09:40:32;95949.22;;;8.19;100.00
10014;BME280;45684;48.358;10.746;2023-02-22T09:43:22;95950.38;;;8.41;100.00
10014;BME280;45684;48.358;10.746;2023-02-22T09:46:03;95948.75;;;8.62;100.00
10014;BME280;45684;48.358;10.746;2023-02-22T09:48:53;95957.09;;;8.83;100.00
10014;BME280;45684;48.358;10.746;2023-02-22T09:51:26;95956.41;;;9.00;100.00
10014;BME280;45684;48.358;10.746;2023-02-22T09:53:58;95949.16;;;9.09;100.00
10014;BME280;45684;48.358;10.746;2023-02-22T09:56:29;95949.00;;;9.23;100.00
10014;BME280;45684;48.358;10.746;2023-02-22T09:59:00;95950.34;;;9.43;100.00
10014;BME280;45684;48.358;10.746;2023-02-22T10:01:32;95950.38;;;9.60;100.00
10014;BME280;45684;48.358;10.746;2023-02-22T10:04:04;95948.97;;;9.71;98.77
10014;BME280;45684;48.358;10.746;2023-02-22T10:06:36;95949.13;;;9.84;99.26
10014;BME280;45684;48.358;10.746;2023-02-22T10:09:05;95950.59;;;9.90;98.14
10014;BME280;45684;48.358;10.746;2023-02-22T10:11:48;95941.22;;;10.05;96.22
10014;BME280;45684;48.358;10.746;2023-02-22T10:14:41;95939.13;;;10.19;96.13
10014;BME280;45684;48.358;10.746;2023-02-22T10:17:21;95937.22;;;10.19;93.36
10014;BME280;45684;48.358;10.746;2023-02-22T10:20:00;95936.94;;;10.30;90.68
10014;BME280;45684;48.358;10.746;2023-02-22T10:22:39;95934.22;;;10.47;91.66
10014;BME280;45684;48.358;10.746;2023-02-22T10:25:10;95929.59;;;10.56;91.82
10014;BME280;45684;48.358;10.746;2023-02-22T10:27:41;95935.00;;;10.47;89.70
10014;BME280;45684;48.358;10.746;2023-02-22T10:30:16;95936.75;;;10.52;89.98
10014;BME280;45684;48.358;10.746;2023-02-22T10:32:56;95931.31;;;10.69;87.01
10014;BME280;45684;48.358;10.746;2023-02-22T10:35:28;95931.25;;;10.87;84.77
10014;BME280;45684;48.358;10.746;2023-02-22T10:38:00;95933.84;;;11.13;83.61
10014;BME280;45684;48.358;10.746;2023-02-22T10:40:31;95926.00;;;11.29;79.24
10014;BME280;45684;48.358;10.746;2023-02-22T10:43:02;95927.00;;;11.45;77.12
10014;BME280;45684;48.358;10.746;2023-02-22T10:45:33;95921.41;;;11.50;76.31
10014;BME280;45684;48.358;10.746;2023-02-22T10:48:06;95926.56;;;11.43;74.49
10014;BME280;45684;48.358;10.746;2023-02-22T10:50:38;95922.53;;;11.49;75.19
10014;BME280;45684;48.358;10.746;2023-02-22T10:53:07;95922.97;;;11.51;73.41
10014;BME280;45684;48.358;10.746;2023-02-22T10:56:10;95920.06;;;11.56;72.05
10014;BME280;45684;48.358;10.746;2023-02-22T10:58:45;95917.38;;;11.86;75.16
10014;BME280;45684;48.358;10.746;2023-02-22T11:01:23;95914.00;;;12.10;73.31
10014;BME280;45684;48.358;10.746;2023-02-22T11:04:02;95910.72;;;12.16;70.45
10014;BME280;45684;48.358;10.746;2023-02-22T11:06:33;95914.44;;;12.33;71.53
10014;BME280;45684;48.358;10.746;2023-02-22T11:09:10;95912.16;;;12.68;71.46
10014;BME280;45684;48.358;10.746;2023-02-22T11:11:43;95904.38;;;12.79;65.68
10014;BME280;45684;48.358;10.746;2023-02-22T11:14:12;95908.00;;;12.83;63.85
10014;BME280;45684;48.358;10.746;2023-02-22T11:16:44;95902.72;;;12.98;64.68
10014;BME280;45684;48.358;10.746;2023-02-22T11:19:19;95906.25;;;13.11;61.29
10014;BME280;45684;48.358;10.746;2023-02-22T11:21:51;95891.78;;;13.32;60.24
10014;BME280;45684;48.358;10.746;2023-02-22T11:24:21;95885.66;;;13.47;57.17
10014;BME280;45684;48.358;10.746;2023-02-22T11:27:01;95889.94;;;13.60;56.09
10014;BME280;45684;48.358;10.746;2023-02-22T11:29:33;95874.59;;;13.80;56.25
10014;BME280;45684;48.358;10.746;2023-02-22T11:32:11;95869.75;;;14.14;56.45
10014;BME280;45684;48.358;10.746;2023-02-22T11:34:41;95872.66;;;14.49;54.97
10014;BME280;45684;48.358;10.746;2023-02-22T11:37:33;95872.81;;;14.84;54.38
10014;BME280;45684;48.358;10.746;2023-02-22T11:40:12;95860.94;;;14.76;52.01
10014;BME280;45684;48.358;10.746;2023-02-22T11:42:45;95857.41;;;14.92;54.10
10014;BME280;45684;48.358;10.746;2023-02-22T11:45:17;95854.81;;;15.11;52.92
10014;BME280;45684;48.358;10.746;2023-02-22T11:47:54;95856.00;;;15.29;50.69
10014;BME280;45684;48.358;10.746;2023-02-22T11:50:27;95852.03;;;15.27;51.68
10014;BME280;45684;48.358;10.746;2023-02-22T11:53:15;95843.31;;;15.53;49.80
10014;BME280;45684;48.358;10.746;2023-02-22T11:55:56;95838.34;;;15.94;49.13
10014;BME280;45684;48.358;10.746;2023-02-22T11:58:37;95828.69;;;15.80;46.19
10014;BME280;45684;48.358;10.746;2023-02-22T12:01:15;95834.47;;;15.95;45.35
10014;BME280;45684;48.358;10.746;2023-02-22T12:04:04;95833.31;;;15.76;44.28
10014;BME280;45684;48.358;10.746;2023-02-22T12:06:46;95828.56;;;15.93;44.36
10014;BME280;45684;48.358;10.746;2023-02-22T12:09:20;95827.75;;;16.31;43.89
10014;BME280;45684;48.358;10.746;2023-02-22T12:12:01;95824.44;;;16.41;43.64
10014;BME280;45684;48.358;10.746;2023-02-22T12:14:39;95828.34;;;16.63;43.26
10014;BME280;45684;48.358;10.746;2023-02-22T12:17:17;95822.41;;;16.57;44.08
10014;BME280;45684;48.358;10.746;2023-02-22T12:19:52;95820.00;;;16.33;43.44
10014;BME280;45684;48.358;10.746;2023-02-22T12:22:23;95817.72;;;16.16;42.13
10014;BME280;45684;48.358;10.746;2023-02-22T12:24:56;95818.59;;;16.20;41.90
10014;BME280;45684;48.358;10.746;2023-02-22T12:27:37;95807.59;;;16.16;41.70
10014;BME280;45684;48.358;10.746;2023-02-22T12:30:13;95811.84;;;16.14;43.35
10014;BME280;45684;48.358;10.746;2023-02-22T12:32:44;95809.84;;;16.11;42.00
10014;BME280;45684;48.358;10.746;2023-02-22T12:35:15;95805.59;;;15.74;43.24
10014;BME280;45684;48.358;10.746;2023-02-22T12:37:58;95806.81;;;15.57;44.83
10014;BME280;45684;48.358;10.746;2023-02-22T12:40:33;95806.81;;;15.57;45.40
10014;BME280;45684;48.358;10.746;2023-02-22T12:43:11;95800.72;;;15.64;45.98
10014;BME280;45684;48.358;10.746;2023-02-22T12:45:46;95805.19;;;15.56;46.96
10014;BME280;45684;48.358;10.746;2023-02-22T12:48:26;95803.53;;;15.52;47.83
10014;BME280;45684;48.358;10.746;2023-02-22T12:51:18;95797.28;;;15.32;49.22
10014;BME280;45684;48.358;10.746;2023-02-22T12:53:53;95791.31;;;15.26;50.39
10014;BME280;45684;48.358;10.746;2023-02-22T12:56:27;95790.53;;;15.26;51.37
10014;BME280;45684;48.358;10.746;2023-02-22T12:59:02;95788.69;;;15.30;52.02
10014;BME280;45684;48.358;10.746;2023-02-22T13:01:37;95785.19;;;15.29;52.01
10014;BME280;45684;48.358;10.746;2023-02-22T13:04:06;95785.97;;;15.30;51.84
10014;BME280;45684;48.358;10.746;2023-02-22T13:07:08;95785.31;;;15.37;52.41
10014;BME280;45684;48.358;10.746;2023-02-22T13:09:58;95783.66;;;15.32;52.50
10014;BME280;45684;48.358;10.746;2023-02-22T13:12:36;95786.75;;;15.30;54.21
10014;BME280;45684;48.358;10.746;2023-02-22T13:15:09;95783.00;;;15.39;51.56
10014;BME280;45684;48.358;10.746;2023-02-22T13:17:51;95779.88;;;15.37;51.15